createdAt,value
2023-02-27T00:02:23.385Z,100434.34
2023-02-27T00:04:52.380Z,100431.81
2023-02-27T00:07:26.155Z,100432.66
2023-02-27T00:09:54.890Z,100437.41
2023-02-27T00:12:23.370Z,100438.63
2023-02-27T00:14:52.227Z,100449.97
2023-02-27T00:17:20.875Z,100462.38
2023-02-27T00:19:49.712Z,100466.13
2023-02-27T00:22:18.241Z,100481.34
2023-02-27T00:24:47.651Z,100486.66
2023-02-27T00:27:16.221Z,100488.59
2023-02-27T00:29:47.738Z,100495.97
2023-02-27T00:32:16.317Z,100500.31
2023-02-27T00:34:45.107Z,100504.78
2023-02-27T00:37:13.592Z,100505.75
2023-02-27T00:39:42.553Z,100498.91
2023-02-27T00:42:11.126Z,100506.97
2023-02-27T00:44:41.022Z,100499.97
2023-02-27T00:47:09.426Z,100503.59
2023-02-27T00:49:38.489Z,100501.06
2023-02-27T00:52:06.907Z,100509.16
2023-02-27T00:54:35.904Z,100498.66
2023-02-27T00:57:04.508Z,100510.25
2023-02-27T00:59:33.514Z,100508.66
2023-02-27T01:02:02.079Z,100517.50
2023-02-27T01:04:30.920Z,100521.94
2023-02-27T01:06:59.546Z,100519.28
2023-02-27T01:09:28.840Z,100525.69
2023-02-27T01:11:57.852Z,100529.19
2023-02-27T01:14:27.306Z,100531.13
2023-02-27T01:16:55.952Z,100528.63
2023-02-27T01:19:25.688Z,100528.63
2023-02-27T01:21:54.283Z,100531.38
2023-02-27T01:24:23.614Z,100542.94
2023-02-27T01:26:53.253Z,100544.03
2023-02-27T01:29:22.248Z,100533.81
2023-02-27T01:31:51.126Z,100536.19
2023-02-27T01:34:21.017Z,100534.38
2023-02-27T01:36:49.663Z,100534.66
2023-02-27T01:39:18.557Z,100528.03
2023-02-27T01:41:47.159Z,100529.69
2023-02-27T01:44:16.084Z,100526.81
2023-02-27T01:46:44.681Z,100534.03
2023-02-27T01:49:22.251Z,100533.09
2023-02-27T01:52:08.595Z,100537.91
2023-02-27T01:54:40.793Z,100541.50
2023-02-27T01:57:09.940Z,100545.16
2023-02-27T01:59:40.709Z,100535.50
2023-02-27T02:02:20.583Z,100539.00
2023-02-27T02:04:49.520Z,100543.44
2023-02-27T02:07:19.534Z,100532.50
2023-02-27T02:09:55.405Z,100537.41
2023-02-27T02:12:29.684Z,100544.53
2023-02-27T02:14:58.463Z,100538.41
2023-02-27T02:17:59.911Z,100540.19
2023-02-27T02:21:27.547Z,100556.25
2023-02-27T02:24:33.693Z,100553.81
2023-02-27T02:27:45.620Z,100555.75
2023-02-27T02:30:32.615Z,100553.09
2023-02-27T02:33:45.082Z,100553.09
2023-02-27T02:36:31.200Z,100560.22
2023-02-27T02:39:16.489Z,100561.19
2023-02-27T02:42:05.875Z,100560.56
2023-02-27T02:44:51.650Z,100572.88
2023-02-27T02:47:44.729Z,100571.41
2023-02-27T02:50:27.677Z,100581.19
2023-02-27T02:53:22.370Z,100587.53
2023-02-27T02:55:53.700Z,100595.41
2023-02-27T02:58:27.984Z,100591.28
2023-02-27T03:01:12.066Z,100598.16
2023-02-27T03:03:49.582Z,100591.19
2023-02-27T03:06:35.334Z,100594.66
2023-02-27T03:09:11.452Z,100589.00
2023-02-27T03:11:42.476Z,100598.63
2023-02-27T03:14:26.624Z,100579.22
2023-02-27T03:16:56.243Z,100601.28
2023-02-27T03:19:27.985Z,100610.94
2023-02-27T03:22:05.832Z,100619.03
2023-02-27T03:24:42.325Z,100617.19
2023-02-27T03:27:11.378Z,100613.09
2023-02-27T03:30:01.017Z,100620.94
2023-02-27T03:32:46.170Z,100617.56
2023-02-27T03:35:15.879Z,100619.25
2023-02-27T03:37:48.566Z,100623.19
2023-02-27T03:40:27.960Z,100621.16
2023-02-27T03:43:47.931Z,100632.75
2023-02-27T03:46:24.786Z,100640.72
2023-02-27T03:48:53.637Z,100640.81
2023-02-27T03:51:24.552Z,100639.97
2023-02-27T03:54:11.569Z,100644.56
2023-02-27T03:56:59.956Z,100635.59
2023-02-27T03:59:29.196Z,100650.91
2023-02-27T04:01:59.136Z,100650.91
2023-02-27T04:04:32.145Z,100645.63
2023-02-27T04:07:23.486Z,100642.50
2023-02-27T04:10:26.576Z,100646.59
2023-02-27T04:13:36.255Z,100644.41
2023-02-27T04:16:29.703Z,100641.03
2023-02-27T04:19:21.411Z,100654.03
2023-02-27T04:22:31.375Z,100655.84
2023-02-27T04:25:23.476Z,100653.31
2023-02-27T04:28:14.206Z,100651.03
2023-02-27T04:31:16.666Z,100661.38
2023-02-27T04:33:55.021Z,100656.94
2023-02-27T04:36:23.364Z,100658.88
2023-02-27T04:39:24.466Z,100651.75
2023-02-27T04:42:00.464Z,100659.97
2023-02-27T04:44:30.693Z,100653.81
2023-02-27T04:46:59.245Z,100665.53
2023-02-27T04:49:37.933Z,100665.31
2023-02-27T04:52:16.028Z,100662.28
2023-02-27T04:55:27.677Z,100662.13
2023-02-27T04:58:18.235Z,100670.09
2023-02-27T05:01:13.757Z,100656.34
2023-02-27T05:03:48.451Z,100661.41
2023-02-27T05:06:18.416Z,100666.63
2023-02-27T05:09:33.168Z,100672.63
2023-02-27T05:12:33.574Z,100664.94
2023-02-27T05:15:28.513Z,100658.53
2023-02-27T05:18:07.296Z,100660.91
2023-02-27T05:21:13.579Z,100662.63
2023-02-27T05:23:50.504Z,100660.16
2023-02-27T05:26:22.683Z,100660.63
2023-02-27T05:29:45.220Z,100660.16
2023-02-27T05:32:44.997Z,100667.88
2023-02-27T05:35:47.646Z,100670.50
2023-02-27T05:38:40.442Z,100676.97
2023-02-27T05:41:58.533Z,100665.25
2023-02-27T05:44:34.145Z,100678.16
2023-02-27T05:47:08.513Z,100680.66
2023-02-27T05:50:02.488Z,100686.09
2023-02-27T05:52:31.351Z,100684.03
2023-02-27T05:55:18.812Z,100685.91
2023-02-27T05:57:59.684Z,100695.44
2023-02-27T06:00:38.067Z,100689.00
2023-02-27T06:03:06.940Z,100691.22
2023-02-27T06:05:37.832Z,100694.13
2023-02-27T06:08:06.678Z,100703.09
2023-02-27T06:10:35.366Z,100704.91
2023-02-27T06:13:04.396Z,100704.78
2023-02-27T06:15:33.147Z,100720.84
2023-02-27T06:18:01.947Z,100710.88
2023-02-27T06:20:30.504Z,100721.75
2023-02-27T06:22:59.423Z,100718.47
2023-02-27T06:25:27.897Z,100729.22
2023-02-27T06:27:57.090Z,100738.19
2023-02-27T06:30:25.653Z,100735.88
2023-02-27T06:32:55.073Z,100740.69
2023-02-27T06:35:23.920Z,100740.47
2023-02-27T06:37:52.715Z,100743.00
2023-02-27T06:40:21.269Z,100744.91
2023-02-27T06:42:50.208Z,100754.81
2023-02-27T06:45:18.830Z,100758.47
2023-02-27T06:47:47.787Z,100755.59
2023-02-27T06:50:16.286Z,100763.56
2023-02-27T06:52:45.129Z,100776.34
2023-02-27T06:55:13.803Z,100775.63
2023-02-27T06:57:42.734Z,100783.59
2023-02-27T07:00:12.820Z,100794.19
2023-02-27T07:02:41.745Z,100785.00
2023-02-27T07:05:12.337Z,100799.28
2023-02-27T07:07:41.304Z,100784.53
2023-02-27T07:10:12.968Z,100809.28
2023-02-27T07:12:42.157Z,100791.19
2023-02-27T07:15:11.299Z,100813.03
2023-02-27T07:17:40.196Z,100802.03
2023-02-27T07:20:10.813Z,100819.50
2023-02-27T07:22:40.673Z,100822.31
2023-02-27T07:25:10.009Z,100822.41
2023-02-27T07:27:38.980Z,100827.97
2023-02-27T07:30:08.734Z,100837.84
2023-02-27T07:32:37.633Z,100830.25
2023-02-27T07:35:07.146Z,100836.66
2023-02-27T07:37:35.964Z,100839.41
2023-02-27T07:40:07.758Z,100839.00
2023-02-27T07:42:36.560Z,100847.84
2023-02-27T07:45:06.214Z,100858.56
2023-02-27T07:47:35.528Z,100851.81
2023-02-27T07:50:04.829Z,100855.19
2023-02-27T07:52:34.123Z,100855.50
2023-02-27T07:55:02.674Z,100848.88
2023-02-27T07:57:31.879Z,100857.78
2023-02-27T08:00:00.357Z,100861.38
2023-02-27T08:02:29.223Z,100859.72
2023-02-27T08:04:57.781Z,100872.25
2023-02-27T08:07:26.814Z,100873.09
2023-02-27T08:09:56.369Z,100871.41
2023-02-27T08:12:25.359Z,100876.81
2023-02-27T08:14:53.964Z,100868.44
2023-02-27T08:17:22.880Z,100869.44
2023-02-27T08:19:51.495Z,100866.78
2023-02-27T08:22:21.017Z,100870.38
2023-02-27T08:24:49.527Z,100872.09
2023-02-27T08:27:18.467Z,100873.38
2023-02-27T08:29:46.981Z,100873.38
2023-02-27T08:32:15.910Z,100872.28
2023-02-27T08:34:44.466Z,100873.38
2023-02-27T08:37:13.366Z,100877.75
2023-02-27T08:39:42.000Z,100876.75
2023-02-27T08:42:10.921Z,100876.88
2023-02-27T08:44:39.419Z,100882.41
2023-02-27T08:47:08.470Z,100885.69
2023-02-27T08:49:37.124Z,100888.56
2023-02-27T08:52:06.097Z,100887.72
2023-02-27T08:54:34.685Z,100876.56
2023-02-27T08:57:04.493Z,100881.75
2023-02-27T08:59:33.123Z,100890.66
2023-02-27T09:02:02.131Z,100893.13
2023-02-27T09:04:30.754Z,100890.56
2023-02-27T09:06:59.655Z,100885.34
2023-02-27T09:09:28.330Z,100890.81
2023-02-27T09:11:57.547Z,100894.19
2023-02-27T09:14:26.205Z,100889.72
2023-02-27T09:16:55.276Z,100899.59
2023-02-27T09:19:23.900Z,100903.09
2023-02-27T09:21:53.217Z,100899.91
2023-02-27T09:24:21.848Z,100907.56
2023-02-27T09:26:51.339Z,100897.16
2023-02-27T09:29:20.247Z,100901.72
2023-02-27T09:31:49.296Z,100901.63
2023-02-27T09:34:17.950Z,100898.13
2023-02-27T09:36:47.124Z,100897.41
2023-02-27T09:39:15.578Z,100905.34
2023-02-27T09:42:02.568Z,100910.75
2023-02-27T09:44:50.625Z,100911.69
2023-02-27T09:47:35.939Z,100922.44
2023-02-27T09:50:55.688Z,100916.06
2023-02-27T09:53:41.876Z,100923.19
2023-02-27T09:56:27.242Z,100934.63
2023-02-27T09:59:37.399Z,100931.97
2023-02-27T10:02:27.568Z,100934.72
2023-02-27T10:05:31.484Z,100933.78
2023-02-27T10:08:26.969Z,100926.78
2023-02-27T10:11:04.440Z,100938.13
2023-02-27T10:14:00.859Z,100931.25
2023-02-27T10:16:30.509Z,100931.00
2023-02-27T10:19:06.482Z,100938.97
2023-02-27T10:21:38.748Z,100938.00
2023-02-27T10:24:42.259Z,100933.44
2023-02-27T10:27:15.175Z,100935.25
2023-02-27T10:29:43.780Z,100941.41
2023-02-27T10:32:13.887Z,100939.59
2023-02-27T10:34:43.547Z,100934.63
2023-02-27T10:37:15.612Z,100934.91
2023-02-27T10:39:50.180Z,100933.66
2023-02-27T10:42:19.280Z,100933.09
2023-02-27T10:44:53.726Z,100942.59
2023-02-27T10:47:26.156Z,100936.09
2023-02-27T10:49:55.049Z,100934.69
2023-02-27T10:52:23.932Z,100937.72
2023-02-27T10:54:53.303Z,100936.94
2023-02-27T10:57:33.415Z,100931.03
2023-02-27T11:00:09.446Z,100927.81
2023-02-27T11:02:43.498Z,100918.41
2023-02-27T11:05:38.504Z,100921.72
2023-02-27T11:08:28.632Z,100920.78
2023-02-27T11:11:09.925Z,100919.56
2023-02-27T11:13:43.609Z,100926.03
2023-02-27T11:16:18.585Z,100917.22
2023-02-27T11:18:49.243Z,100908.03
2023-02-27T11:21:29.556Z,100915.03
2023-02-27T11:24:07.120Z,100906.81
2023-02-27T11:26:41.391Z,100908.28
2023-02-27T11:29:19.157Z,100896.91
2023-02-27T11:32:13.550Z,100906.31
2023-02-27T11:34:48.768Z,100899.66
2023-02-27T11:37:35.931Z,100896.50
2023-02-27T11:40:16.668Z,100895.16
2023-02-27T11:42:52.989Z,100895.63
2023-02-27T11:46:04.732Z,100902.88
2023-02-27T11:48:31.762Z,100893.94
2023-02-27T11:51:26.110Z,100893.34
2023-02-27T11:54:07.502Z,100898.19
2023-02-27T11:57:16.121Z,100886.81
2023-02-27T12:00:09.509Z,100893.84
2023-02-27T12:03:13.864Z,100896.63
2023-02-27T12:05:55.140Z,100891.53
2023-02-27T12:08:56.057Z,100896.75
2023-02-27T12:11:31.241Z,100904.13
2023-02-27T12:14:21.634Z,100890.97
2023-02-27T12:17:20.894Z,100890.59
2023-02-27T12:20:08.218Z,100889.16
2023-02-27T12:22:41.709Z,100884.09
2023-02-27T12:25:24.177Z,100891.94
2023-02-27T12:27:59.594Z,100893.25
2023-02-27T12:30:32.285Z,100896.19
2023-02-27T12:33:42.645Z,100893.63
2023-02-27T12:36:13.332Z,100891.09
2023-02-27T12:38:41.976Z,100894.03
2023-02-27T12:41:41.945Z,100900.53
2023-02-27T12:45:04.436Z,100897.63
2023-02-27T12:48:03.552Z,100884.00
2023-02-27T12:51:29.884Z,100889.06
2023-02-27T12:54:18.057Z,100887.38
2023-02-27T12:56:53.280Z,100876.97
2023-02-27T12:59:52.253Z,100882.44
2023-02-27T13:02:35.848Z,100877.47
2023-02-27T13:05:37.997Z,100879.38
2023-02-27T13:08:40.652Z,100880.47
2023-02-27T13:11:37.237Z,100883.97
2023-02-27T13:14:18.497Z,100889.41
2023-02-27T13:17:20.869Z,100883.63
2023-02-27T13:19:58.297Z,100879.25
2023-02-27T13:23:08.068Z,100887.34
2023-02-27T13:25:37.180Z,100882.28
2023-02-27T13:28:09.289Z,100884.41
2023-02-27T13:31:09.608Z,100879.34
2023-02-27T13:34:00.552Z,100885.50
2023-02-27T13:36:56.569Z,100886.72
2023-02-27T13:39:47.386Z,100889.38
2023-02-27T13:42:27.894Z,100880.56
2023-02-27T13:45:02.208Z,100891.53
2023-02-27T13:47:31.343Z,100896.13
2023-02-27T13:50:24.834Z,100898.78
2023-02-27T13:52:53.801Z,100899.03
2023-02-27T13:55:32.056Z,100905.41
2023-02-27T13:58:01.263Z,100905.66
2023-02-27T14:00:35.992Z,100915.66
2023-02-27T14:03:19.614Z,100906.56
2023-02-27T14:05:49.642Z,100902.34
2023-02-27T14:08:30.005Z,100914.06
2023-02-27T14:11:21.198Z,100920.19
2023-02-27T14:13:54.939Z,100926.59
2023-02-27T14:16:40.187Z,100911.97
2023-02-27T14:19:18.090Z,100912.69
2023-02-27T14:21:57.477Z,100929.38
2023-02-27T14:25:01.562Z,100925.25
2023-02-27T14:27:43.856Z,100932.59
2023-02-27T14:30:44.805Z,100921.34
2023-02-27T14:33:40.615Z,100935.34
2023-02-27T14:36:19.432Z,100934.25
2023-02-27T14:38:49.216Z,100936.78
2023-02-27T14:41:33.359Z,100940.91
2023-02-27T14:44:02.278Z,100934.13
2023-02-27T14:46:39.219Z,100948.63
2023-02-27T14:49:26.473Z,100941.84
2023-02-27T14:51:55.127Z,100933.63
2023-02-27T14:54:27.859Z,100946.66
2023-02-27T14:57:01.584Z,100933.63
2023-02-27T14:59:52.979Z,100938.94
2023-02-27T15:02:29.372Z,100950.28
2023-02-27T15:05:03.965Z,100958.59
2023-02-27T15:07:34.010Z,100948.81
2023-02-27T15:10:08.437Z,100958.44
2023-02-27T15:12:40.217Z,100953.50
2023-02-27T15:15:10.794Z,100957.72
2023-02-27T15:17:44.366Z,100954.06
2023-02-27T15:20:30.735Z,100950.66
2023-02-27T15:23:01.724Z,100967.44
2023-02-27T15:25:39.582Z,100965.03
2023-02-27T15:28:22.655Z,100973.94
2023-02-27T15:30:51.791Z,100954.97
2023-02-27T15:33:22.274Z,100967.16
2023-02-27T15:35:51.280Z,100964.72
2023-02-27T15:38:31.492Z,100975.22
2023-02-27T15:41:01.730Z,100980.63
2023-02-27T15:43:30.240Z,100979.06
2023-02-27T15:45:59.018Z,100982.53
2023-02-27T15:48:27.713Z,100989.91
2023-02-27T15:51:01.283Z,100987.13
2023-02-27T15:53:31.056Z,100983.97
2023-02-27T15:56:12.027Z,100997.13
2023-02-27T15:58:51.709Z,101006.03
2023-02-27T16:01:21.889Z,101009.75
2023-02-27T16:03:55.637Z,101008.88
2023-02-27T16:06:38.906Z,101015.69
2023-02-27T16:09:24.964Z,101015.25
2023-02-27T16:12:30.791Z,101013.22
2023-02-27T16:15:20.730Z,101013.34
2023-02-27T16:18:08.149Z,101026.56
2023-02-27T16:20:48.773Z,101031.19
2023-02-27T16:23:22.871Z,101025.44
2023-02-27T16:26:27.573Z,101026.63
2023-02-27T16:29:20.838Z,101013.31
2023-02-27T16:31:55.190Z,101040.22
2023-02-27T16:34:45.754Z,101040.03
2023-02-27T16:37:23.347Z,101043.47
2023-02-27T16:39:52.456Z,101042.38
2023-02-27T16:42:21.315Z,101055.34
2023-02-27T16:44:50.071Z,101042.06
2023-02-27T16:47:18.660Z,101059.28
2023-02-27T16:49:49.628Z,101049.66
2023-02-27T16:52:18.242Z,101068.50
2023-02-27T16:54:46.940Z,101066.13
2023-02-27T16:57:16.857Z,101065.78
2023-02-27T16:59:45.657Z,101071.22
2023-02-27T17:02:15.389Z,101079.34
2023-02-27T17:04:47.032Z,101075.59
2023-02-27T17:07:17.002Z,101071.59
2023-02-27T17:09:46.386Z,101078.50
2023-02-27T17:12:15.120Z,101089.16
2023-02-27T17:14:44.022Z,101092.31
2023-02-27T17:17:12.531Z,101095.63
2023-02-27T17:19:41.328Z,101103.72
2023-02-27T17:22:09.780Z,101103.56
2023-02-27T17:24:39.132Z,101103.22
2023-02-27T17:27:07.748Z,101101.03
2023-02-27T17:29:38.699Z,101107.34
2023-02-27T17:32:07.191Z,101112.16
2023-02-27T17:34:36.068Z,101114.09
2023-02-27T17:37:04.541Z,101115.91
2023-02-27T17:39:33.710Z,101116.00
2023-02-27T17:42:02.242Z,101128.59
2023-02-27T17:44:31.075Z,101131.97
2023-02-27T17:46:59.620Z,101129.31
2023-02-27T17:49:28.860Z,101131.72
2023-02-27T17:52:00.736Z,101141.59
2023-02-27T17:54:29.777Z,101142.09
2023-02-27T17:56:58.590Z,101141.81
2023-02-27T17:59:27.546Z,101138.31
2023-02-27T18:01:56.098Z,101148.84
2023-02-27T18:04:25.490Z,101139.22
2023-02-27T18:06:54.192Z,101158.31
2023-02-27T18:09:24.592Z,101156.03
2023-02-27T18:11:53.578Z,101155.03
2023-02-27T18:14:22.606Z,101159.31
2023-02-27T18:16:51.314Z,101163.69
2023-02-27T18:19:20.293Z,101164.53
2023-02-27T18:21:48.906Z,101160.81
2023-02-27T18:24:17.899Z,101173.38
2023-02-27T18:26:46.489Z,101166.16
2023-02-27T18:29:16.405Z,101177.31
2023-02-27T18:31:46.238Z,101180.06
2023-02-27T18:34:15.202Z,101175.59
2023-02-27T18:36:43.969Z,101179.56
2023-02-27T18:39:12.886Z,101175.34
2023-02-27T18:41:41.469Z,101170.72
2023-02-27T18:44:11.323Z,101171.72
2023-02-27T18:46:40.477Z,101171.59
2023-02-27T18:49:09.540Z,101166.88
2023-02-27T18:51:38.218Z,101182.09
2023-02-27T18:54:07.313Z,101184.03
2023-02-27T18:56:35.893Z,101183.75
2023-02-27T18:59:05.726Z,101188.34
2023-02-27T19:01:36.980Z,101196.69
2023-02-27T19:04:09.777Z,101194.25
2023-02-27T19:06:43.324Z,101183.88
2023-02-27T19:09:16.318Z,101196.72
2023-02-27T19:11:47.019Z,101197.19
2023-02-27T19:14:16.679Z,101190.97
2023-02-27T19:16:46.317Z,101196.03
2023-02-27T19:19:15.224Z,101201.03
2023-02-27T19:21:44.444Z,101205.13
2023-02-27T19:24:13.995Z,101195.94
2023-02-27T19:26:42.605Z,101212.75
2023-02-27T19:29:11.583Z,101213.59
2023-02-27T19:31:40.120Z,101216.16
2023-02-27T19:34:08.949Z,101210.34
2023-02-27T19:36:37.630Z,101208.03
2023-02-27T19:39:06.534Z,101209.72
2023-02-27T19:41:35.149Z,101216.88
2023-02-27T19:44:04.101Z,101219.03
2023-02-27T19:46:34.235Z,101229.09
2023-02-27T19:49:05.419Z,101228.63
2023-02-27T19:51:34.345Z,101229.94
2023-02-27T19:54:03.262Z,101236.22
2023-02-27T19:56:32.061Z,101237.69
2023-02-27T19:59:01.757Z,101234.53
2023-02-27T20:01:36.340Z,101233.19
2023-02-27T20:04:06.300Z,101242.50
2023-02-27T20:06:42.385Z,101248.06
2023-02-27T20:09:14.763Z,101245.97
2023-02-27T20:11:44.328Z,101253.00
2023-02-27T20:14:14.726Z,101257.50
2023-02-27T20:16:43.794Z,101248.97
2023-02-27T20:19:15.135Z,101257.94
2023-02-27T20:21:44.826Z,101257.94
2023-02-27T20:24:14.884Z,101260.09
2023-02-27T20:26:48.937Z,101259.25
2023-02-27T20:29:21.925Z,101269.38
2023-02-27T20:31:53.051Z,101279.19
2023-02-27T20:34:26.635Z,101277.59
2023-02-27T20:36:56.083Z,101275.69
2023-02-27T20:39:25.911Z,101275.22
2023-02-27T20:41:55.312Z,101287.22
2023-02-27T20:44:25.016Z,101285.56
2023-02-27T20:46:54.320Z,101275.53
2023-02-27T20:49:23.784Z,101278.69
2023-02-27T20:51:53.077Z,101274.59
2023-02-27T20:54:22.470Z,101283.44
2023-02-27T20:56:55.091Z,101281.91
2023-02-27T20:59:25.770Z,101279.25
2023-02-27T21:01:55.387Z,101271.84
2023-02-27T21:04:51.480Z,101293.50
2023-02-27T21:07:23.904Z,101287.81
2023-02-27T21:09:53.332Z,101294.94
2023-02-27T21:12:22.469Z,101298.81
2023-02-27T21:14:51.658Z,101279.28
2023-02-27T21:17:20.480Z,101295.06
2023-02-27T21:19:49.789Z,101295.63
2023-02-27T21:22:18.698Z,101300.22
2023-02-27T21:24:50.359Z,101297.94
2023-02-27T21:27:21.626Z,101307.81
2023-02-27T21:29:51.104Z,101301.13
2023-02-27T21:32:19.963Z,101296.97
2023-02-27T21:34:49.348Z,101294.78
2023-02-27T21:37:18.216Z,101288.00
2023-02-27T21:39:53.171Z,101287.38
2023-02-27T21:42:22.512Z,101293.78
2023-02-27T21:44:51.668Z,101294.97
2023-02-27T21:47:21.095Z,101292.53
2023-02-27T21:49:51.848Z,101293.41
2023-02-27T21:52:20.765Z,101301.50
2023-02-27T21:54:50.847Z,101292.22
2023-02-27T21:57:21.845Z,101301.78
2023-02-27T21:59:51.272Z,101302.91
2023-02-27T22:02:20.178Z,101309.44
2023-02-27T22:04:49.497Z,101306.25
2023-02-27T22:07:18.356Z,101305.47
2023-02-27T22:09:50.192Z,101311.56
2023-02-27T22:12:18.972Z,101304.97
2023-02-27T22:14:49.024Z,101310.91
2023-02-27T22:17:17.967Z,101316.47
2023-02-27T22:19:48.182Z,101316.69
2023-02-27T22:22:17.167Z,101321.41
2023-02-27T22:24:47.086Z,101315.44
2023-02-27T22:27:16.234Z,101324.78
2023-02-27T22:29:45.473Z,101322.31
2023-02-27T22:32:14.465Z,101316.00
2023-02-27T22:34:43.736Z,101315.75
2023-02-27T22:37:14.024Z,101315.47
2023-02-27T22:39:43.433Z,101324.44
2023-02-27T22:42:12.316Z,101314.47
2023-02-27T22:44:41.731Z,101324.13
2023-02-27T22:47:11.333Z,101322.78
2023-02-27T22:49:40.445Z,101327.47
2023-02-27T22:52:09.483Z,101324.19
2023-02-27T22:54:38.624Z,101334.94
2023-02-27T22:57:07.408Z,101331.53
2023-02-27T22:59:36.864Z,101332.72
2023-02-27T23:02:06.839Z,101332.72
2023-02-27T23:04:36.052Z,101336.56
2023-02-27T23:07:04.879Z,101339.75
2023-02-27T23:09:34.085Z,101346.56
2023-02-27T23:12:04.664Z,101349.44
2023-02-27T23:14:34.058Z,101341.78
2023-02-27T23:17:02.921Z,101340.41
2023-02-27T23:19:33.382Z,101342.22
2023-02-27T23:22:02.241Z,101331.06
2023-02-27T23:24:31.372Z,101346.16
2023-02-27T23:27:00.472Z,101351.47
2023-02-27T23:29:29.770Z,101338.53
2023-02-27T23:31:58.611Z,101341.38
2023-02-27T23:34:29.101Z,101337.97
2023-02-27T23:37:00.373Z,101345.09
2023-02-27T23:39:29.616Z,101343.38
2023-02-27T23:41:58.350Z,101340.09
2023-02-27T23:44:27.743Z,101340.31
2023-02-27T23:46:56.554Z,101341.25
2023-02-27T23:49:26.067Z,101350.41
2023-02-27T23:51:54.889Z,101354.97
2023-02-27T23:54:24.152Z,101348.09
2023-02-27T23:56:53.043Z,101356.16
2023-02-27T23:59:22.192Z,101349.34
